• Join FlightAware (Why Join?)
  • Login
  • US Flag 
10:52AM EDT


 

Airport Tracker/Info


-or-


 

Live Flight TrackerFlight Track Log ✈ N340K ✈ 14-Aug-2014 ✈ KHIO - KBVS

Flight Track Log - Related Links

Times and Time Zones

All times are in EDT time to prevent confusion due to time zone crossing. See the N340K flight status page for this flight to view local times or setup timezone preferences in your user account.

Time Position Orientation Groundspeed Altitude Reporting Facility
EDT Latitude Longitude Course Direction KTS MPH feet Rate Location/Type
07:14PM 45.5653 -122.9733 North 102 117 1,400  Level Seattle Center
07:15PM 45.5775 -122.9808 337° Northwest 111 128 1,600 600 Climbing Seattle Center
07:15PM 45.5833 -122.9847 335° Northwest 115 132 1,800 1,260 Climbing Seattle Center
07:16PM 45.6089 -123.0083 327° Northwest 124 143 2,900 1,440 Climbing Seattle Center
07:16PM 45.6169 -123.0158 327° Northwest 118 136 3,300 900 Climbing Seattle Center
07:17PM 45.6547 -123.0208 355° North 150 173 4,000 720 Climbing Seattle Center
07:18PM 45.8583 -122.8956 North  Level Estimated
07:18PM 45.6942 -123.0233 357° North 162 186 4,700  Level Seattle Center
07:18PM 45.7036 -123.0250 353° North 154 177 5,000 1,080 Climbing Seattle Center
07:19PM 45.9037 -122.8878 North  Level Estimated
07:19PM 45.7361 -123.0281 356° North 155 178 5,800  Level Seattle Center
07:19PM 45.7458 -123.0300 352° North 154 177 6,100 1,140 Climbing Seattle Center
07:20PM 45.9491 -122.8799 North  Level Estimated
07:20PM 45.7842 -123.0306 359° North 148 170 7,100  Level Seattle Center
07:21PM 45.8267 -123.0258 North 150 173 8,200 1,020 Climbing Seattle Center
07:22PM 45.8742 -123.0228 North 154 177 9,400 1,020 Climbing Seattle Center
07:23PM 45.9164 -123.0194 North 154 177 10,400 960 Climbing Seattle Center
07:24PM 45.9600 -123.0147 North 156 180 11,400 960 Climbing Seattle Center
07:25PM 46.0022 -123.0108 North 155 178 12,400 960 Climbing Seattle Center
07:26PM 46.0478 -123.0064 North 155 178 13,400 840 Climbing Seattle Center
07:27PM 46.0922 -123.0119 355° North 156 180 14,200 780 Climbing Seattle Center
07:28PM 46.1381 -123.0044 North 162 186 15,000 780 Climbing Seattle Center
07:29PM 46.1828 -122.9994 North 162 186 15,900 480 Climbing Seattle Center
07:30PM 46.2350 -122.9967 North 176 203 16,100 60 Climbing Seattle Center
07:31PM 46.2875 -122.9908 North 188 216 16,100  Level Seattle Center
07:33PM 46.3397 -122.9847 North 188 216 16,100  Level Seattle Center
07:34PM 46.3925 -122.9786 North 188 216 16,100  Level Seattle Center
07:35PM 46.4486 -122.9753 North 188 216 16,100  Level Seattle Center
07:36PM 46.4917 -122.9653 North 188 216 16,100  Level Seattle Center
07:37PM 46.5533 -122.9564 North 188 216 16,100  Level Seattle Center
07:38PM 46.6058 -122.9506 North 187 215 16,100  Level Seattle Center
07:39PM 46.6561 -122.9456 North 184 212 16,200  Climbing Seattle Center
07:40PM 46.7072 -122.9406 North 183 211 16,100 -60 Descending Seattle Center
07:41PM 46.7617 -122.9347 North 183 211 16,100  Level Seattle Center
07:42PM 46.8119 -122.9294 North 182 209 16,100  Level Seattle Center
07:43PM 46.8625 -122.9239 North 181 208 16,100  Level Seattle Center
07:44PM 46.9175 -122.9192 North 183 211 16,100  Level Seattle Center
07:45PM 46.9681 -122.9136 North 182 209 16,100  Level Seattle Center
07:46PM 47.0172 -122.9028 North 182 209 16,100  Level Seattle Center
07:47PM 47.0667 -122.8897 10° North 182 209 16,100  Level Seattle Center
07:48PM 47.1206 -122.8831 North 182 209 16,100  Level Seattle Center
07:49PM 47.1722 -122.8753 North 185 213 16,100  Level Seattle Center
07:50PM 47.2228 -122.8681 North 185 213 16,100  Level Seattle Center
07:51PM 47.2783 -122.8581 North 185 213 16,100  Level Seattle Center
07:52PM 47.3297 -122.8522 North 186 214 16,100  Level Seattle Center
07:53PM 47.3808 -122.8456 North 185 213 16,100  Level Seattle Center
07:54PM 47.4333 -122.8367 North 187 215 16,100  Level Seattle Center
07:55PM 47.4886 -122.8286 North 187 215 16,100  Level Seattle Center
07:56PM 47.5414 -122.8236 North 186 214 16,100  Level Seattle Center
07:57PM 47.5717 -122.8192 North 183 211 16,100  Level Seattle Center
07:57PM 47.5914 -122.8153 North 184 212 16,100 -120 Level Seattle Center
07:58PM 47.6428 -122.8094 North 182 209 16,000 -600 Descending Seattle Center
07:59PM 47.6994 -122.8011 North 204 235 15,000 -1,080 Descending Seattle Center
08:00PM 47.7622 -122.7911 North 214 246 13,900 -1,080 Descending Seattle Center
08:01PM 47.8169 -122.7828 North 214 246 12,900 -1,020 Descending Seattle Center
08:02PM 47.8733 -122.7747 North 206 237 11,900 -1,020 Descending Seattle Center
08:03PM 47.9281 -122.7672 North 201 231 10,900 -1,080 Descending Seattle Center
08:04PM 47.9836 -122.7600 North 199 229 9,800 -1,140 Descending Seattle Center
08:05PM 48.0414 -122.7514 North 207 238 8,700 -1,140 Descending Seattle Center
08:06PM 48.1147 -122.7406 North 205 236 7,400 -1,080 Descending Seattle Center
08:07PM 48.1656 -122.7378 North 204 235 6,500 -720 Descending Seattle Center
08:08PM 48.2211 -122.7303 North 203 234 6,100 -300 Descending Seattle Center
08:09PM 48.2708 -122.7236 North 185 213 6,000 -540 Descending Seattle Center
08:10PM 48.3258 -122.7203 North 197 227 5,100 -480 Descending Seattle Center
08:11PM 48.3781 -122.7131 North 190 219 5,100  Level Seattle Center
08:12PM 48.4272 -122.7086 North 179 206 5,100 -60 Level Seattle Center
08:13PM 48.4753 -122.7028 North 178 205 5,000 -540 Descending Seattle Center
08:14PM 48.5269 -122.6989 North 179 206 4,100 -480 Descending Seattle Center
08:15PM 48.5739 -122.6919 North 171 197 4,100  Level Seattle Center
08:16PM 48.5867 -122.6936 355° North 146 168 4,100  Level Seattle Center
08:16PM 48.6128 -122.6875 North 152 175 4,100  Level Seattle Center
08:17PM 48.6178 -122.7461 277° West 125 144 4,100  Level Seattle Center
08:18PM 48.6344 -122.7692 318° Northwest 138 159 4,100 -60 Level Seattle Center
08:20PM 48.6183 -122.7219 117° Southeast 137 158 4,000 -180 Descending Seattle Center
08:20PM 48.5942 -122.6792 130° Southeast 135 155 3,800 -480 Descending Seattle Center
08:21PM 48.5736 -122.6339 124° Southeast 139 160 3,100 -600 Descending Seattle Center
08:23PM 48.5519 -122.5853 124° Southeast 135 155 2,600 -480 Descending Seattle Center